UVA9829 DNAA-DNPO
Flight info
| Callsign | UVA9829 |
|---|---|
| Flight time | 1h 23m |
| Altitude | 30000 |
| Route | IKVAD1Q IKVAD DCT IVBUV UV456 BORMO BORMO1R |
| Aircraft | A359/H-SDE2E3GHIJ3J4J5LM1ORWXY/LB1D1 |
Departure
| Time | 2026-05-06 09:39 |
|---|---|
| Airport | Nnamdi Azikiwe International Airport (DNAA) |
Arrival
| Time | 2026-05-06 11:03 |
|---|---|
| Airport | Port Harcourt International Airport (DNPO) |
| Time | Latitude | Longitude | Altitude | Speed | Heading |
|---|---|---|---|---|---|
| 2026-05-06 08:35 | 9.01064 | 7.27046 | 1133 ft | 0 kts | 35° |
| 2026-05-06 09:32 | 9.01067 | 7.27048 | 1133 ft | 1 kts | 35° |
| 2026-05-06 09:32 | 9.01077 | 7.27055 | 1133 ft | 2 kts | 30° |
| 2026-05-06 09:33 | 9.01098 | 7.27062 | 1133 ft | 3 kts | 7° |
| 2026-05-06 09:33 | 9.01119 | 7.27052 | 1133 ft | 4 kts | 323° |
| 2026-05-06 09:33 | 9.01149 | 7.27035 | 1133 ft | 5 kts | 334° |
| 2026-05-06 09:33 | 9.01187 | 7.27030 | 1133 ft | 5 kts | 22° |
| 2026-05-06 09:34 | 9.01217 | 7.27064 | 1133 ft | 7 kts | 52° |
| 2026-05-06 09:34 | 9.01251 | 7.27108 | 1133 ft | 8 kts | 52° |
| 2026-05-06 09:34 | 9.01291 | 7.27160 | 1133 ft | 10 kts | 52° |
| 2026-05-06 09:34 | 9.01337 | 7.27220 | 1134 ft | 11 kts | 52° |
| 2026-05-06 09:35 | 9.01392 | 7.27269 | 1134 ft | 10 kts | 6° |
| 2026-05-06 09:35 | 9.01454 | 7.27225 | 1134 ft | 11 kts | 307° |
| 2026-05-06 09:35 | 9.01507 | 7.27155 | 1134 ft | 13 kts | 313° |
| 2026-05-06 09:35 | 9.01549 | 7.27141 | 1134 ft | 5 kts | 32° |
| 2026-05-06 09:36 | 9.01583 | 7.27162 | 1134 ft | 6 kts | 32° |
| 2026-05-06 09:36 | 9.01626 | 7.27190 | 1134 ft | 8 kts | 32° |
| 2026-05-06 09:36 | 9.01677 | 7.27223 | 1134 ft | 9 kts | 32° |
| 2026-05-06 09:36 | 9.01736 | 7.27261 | 1134 ft | 10 kts | 33° |
| 2026-05-06 09:37 | 9.01804 | 7.27306 | 1134 ft | 12 kts | 33° |
| 2026-05-06 09:37 | 9.01879 | 7.27354 | 1135 ft | 13 kts | 24° |
| 2026-05-06 09:37 | 9.01949 | 7.27342 | 1135 ft | 9 kts | 301° |
| 2026-05-06 09:37 | 9.01967 | 7.27300 | 1135 ft | 5 kts | 308° |
| 2026-05-06 09:38 | 9.01990 | 7.27262 | 1135 ft | 6 kts | 283° |
| 2026-05-06 09:38 | 9.01965 | 7.27225 | 1134 ft | 7 kts | 214° |
| 2026-05-06 09:38 | 9.01917 | 7.27192 | 1134 ft | 9 kts | 214° |
| 2026-05-06 09:38 | 9.01723 | 7.27056 | 1134 ft | 76 kts | 215° |
| 2026-05-06 09:39 | 9.01051 | 7.26578 | 1133 ft | 156 kts | 215° |
| 2026-05-06 09:39 | 9.00050 | 7.25880 | 1678 ft | 179 kts | 215° |
| 2026-05-06 09:39 | 8.99027 | 7.25211 | 2691 ft | 179 kts | 201° |
| 2026-05-06 09:39 | 8.97815 | 7.25170 | 3601 ft | 186 kts | 163° |
| 2026-05-06 09:40 | 8.96568 | 7.25552 | 4315 ft | 193 kts | 173° |
| 2026-05-06 09:40 | 8.95190 | 7.25411 | 4756 ft | 206 kts | 189° |
| 2026-05-06 09:40 | 8.92117 | 7.24984 | 5583 ft | 240 kts | 185° |
| 2026-05-06 09:41 | 8.90393 | 7.24824 | 6065 ft | 256 kts | 184° |
| 2026-05-06 09:41 | 8.88559 | 7.24679 | 6541 ft | 273 kts | 182° |
| 2026-05-06 09:41 | 8.86603 | 7.24540 | 7023 ft | 289 kts | 182° |
| 2026-05-06 09:41 | 8.84562 | 7.24404 | 7657 ft | 298 kts | 181° |
| 2026-05-06 09:42 | 8.82466 | 7.24266 | 8380 ft | 303 kts | 180° |
| 2026-05-06 09:42 | 8.80372 | 7.24132 | 9116 ft | 306 kts | 179° |
| 2026-05-06 09:42 | 8.78212 | 7.23997 | 9827 ft | 311 kts | 178° |
| 2026-05-06 09:42 | 8.76031 | 7.23867 | 10508 ft | 317 kts | 179° |
| 2026-05-06 09:43 | 8.73776 | 7.23735 | 10934 ft | 333 kts | 179° |
| 2026-05-06 09:43 | 8.71399 | 7.23595 | 11333 ft | 349 kts | 179° |
| 2026-05-06 09:43 | 8.68951 | 7.23446 | 11860 ft | 360 kts | 179° |
| 2026-05-06 09:43 | 8.66416 | 7.23288 | 12624 ft | 363 kts | 179° |
| 2026-05-06 09:44 | 8.63904 | 7.23130 | 13428 ft | 365 kts | 179° |
| 2026-05-06 09:44 | 8.61363 | 7.22975 | 14188 ft | 367 kts | 180° |
| 2026-05-06 09:44 | 8.58779 | 7.22818 | 14912 ft | 370 kts | 180° |
| 2026-05-06 09:44 | 8.56204 | 7.22660 | 15600 ft | 372 kts | 181° |
| 2026-05-06 09:45 | 8.53618 | 7.22501 | 16260 ft | 375 kts | 181° |
| 2026-05-06 09:45 | 8.51010 | 7.22341 | 16903 ft | 378 kts | 182° |
| 2026-05-06 09:45 | 8.48350 | 7.22177 | 17556 ft | 380 kts | 182° |
| 2026-05-06 09:45 | 8.45727 | 7.22011 | 18202 ft | 381 kts | 182° |
| 2026-05-06 09:46 | 8.43072 | 7.21845 | 18778 ft | 385 kts | 182° |
| 2026-05-06 09:46 | 8.40378 | 7.21677 | 19325 ft | 389 kts | 182° |
| 2026-05-06 09:46 | 8.37646 | 7.21509 | 19861 ft | 393 kts | 182° |
| 2026-05-06 09:46 | 8.34926 | 7.21342 | 20379 ft | 396 kts | 182° |
| 2026-05-06 09:47 | 8.32149 | 7.21171 | 20897 ft | 400 kts | 182° |
| 2026-05-06 09:47 | 8.29348 | 7.21000 | 21399 ft | 404 kts | 182° |
| 2026-05-06 09:47 | 8.26501 | 7.20824 | 21896 ft | 408 kts | 182° |
| 2026-05-06 09:47 | 8.23675 | 7.20651 | 22383 ft | 411 kts | 182° |
| 2026-05-06 09:48 | 8.20804 | 7.20475 | 22872 ft | 415 kts | 182° |
| 2026-05-06 09:48 | 8.17891 | 7.20301 | 23350 ft | 419 kts | 182° |
| 2026-05-06 09:48 | 8.14976 | 7.20134 | 23817 ft | 423 kts | 182° |
| 2026-05-06 09:48 | 8.11975 | 7.19962 | 24271 ft | 427 kts | 182° |
| 2026-05-06 09:49 | 8.08998 | 7.19793 | 24670 ft | 432 kts | 182° |
| 2026-05-06 09:49 | 8.05975 | 7.19621 | 25045 ft | 437 kts | 182° |
| 2026-05-06 09:49 | 8.02914 | 7.19447 | 25444 ft | 441 kts | 182° |
| 2026-05-06 09:49 | 7.99837 | 7.19272 | 25838 ft | 445 kts | 182° |
| 2026-05-06 09:50 | 7.96713 | 7.19093 | 26229 ft | 449 kts | 182° |
| 2026-05-06 09:50 | 7.93597 | 7.18916 | 26627 ft | 452 kts | 182° |
| 2026-05-06 09:50 | 7.90412 | 7.18734 | 27068 ft | 454 kts | 182° |
| 2026-05-06 09:50 | 7.87229 | 7.18547 | 27593 ft | 453 kts | 183° |
| 2026-05-06 09:51 | 7.84125 | 7.18269 | 28100 ft | 453 kts | 185° |
| 2026-05-06 09:51 | 7.80975 | 7.17956 | 28540 ft | 454 kts | 185° |
| 2026-05-06 09:51 | 7.77819 | 7.17636 | 28924 ft | 457 kts | 185° |
| 2026-05-06 09:51 | 7.74613 | 7.17310 | 29281 ft | 460 kts | 185° |
| 2026-05-06 09:52 | 7.71425 | 7.16989 | 29651 ft | 462 kts | 185° |
| 2026-05-06 09:52 | 7.68223 | 7.16667 | 29889 ft | 465 kts | 185° |
| 2026-05-06 09:52 | 7.61732 | 7.16017 | 29922 ft | 465 kts | 185° |
| 2026-05-06 09:53 | 7.55274 | 7.15419 | 29934 ft | 465 kts | 184° |
| 2026-05-06 09:53 | 7.48826 | 7.14848 | 29942 ft | 465 kts | 184° |
| 2026-05-06 09:54 | 7.42366 | 7.14274 | 29941 ft | 465 kts | 184° |
| 2026-05-06 09:54 | 7.35924 | 7.13699 | 29941 ft | 465 kts | 184° |
| 2026-05-06 09:55 | 7.29453 | 7.13122 | 29934 ft | 465 kts | 184° |
| 2026-05-06 09:55 | 7.23003 | 7.12547 | 29920 ft | 464 kts | 184° |
| 2026-05-06 09:56 | 7.16514 | 7.11968 | 29916 ft | 464 kts | 184° |
| 2026-05-06 09:56 | 7.10080 | 7.11395 | 29919 ft | 464 kts | 184° |
| 2026-05-06 09:57 | 7.03626 | 7.10819 | 29917 ft | 464 kts | 184° |
| 2026-05-06 09:57 | 6.97225 | 7.10231 | 29917 ft | 464 kts | 186° |
| 2026-05-06 09:58 | 6.90795 | 7.09245 | 29923 ft | 464 kts | 188° |
| 2026-05-06 09:58 | 6.84386 | 7.08330 | 29924 ft | 463 kts | 184° |
| 2026-05-06 09:59 | 6.77967 | 7.07913 | 29924 ft | 462 kts | 182° |
| 2026-05-06 09:59 | 6.71529 | 7.07541 | 29928 ft | 462 kts | 182° |
| 2026-05-06 10:00 | 6.65100 | 7.07160 | 29928 ft | 462 kts | 182° |
| 2026-05-06 10:00 | 6.58654 | 7.06778 | 29924 ft | 461 kts | 182° |
| 2026-05-06 10:01 | 6.52249 | 7.06346 | 29925 ft | 461 kts | 184° |
| 2026-05-06 10:01 | 6.45856 | 7.05749 | 29927 ft | 460 kts | 184° |
| 2026-05-06 10:02 | 6.39428 | 7.05147 | 29930 ft | 460 kts | 184° |
| 2026-05-06 10:02 | 6.33077 | 7.04564 | 29927 ft | 459 kts | 184° |
| 2026-05-06 10:03 | 6.26708 | 7.03983 | 29930 ft | 459 kts | 184° |
| 2026-05-06 10:03 | 6.20329 | 7.03403 | 29937 ft | 459 kts | 184° |
| 2026-05-06 10:04 | 6.13952 | 7.02825 | 29940 ft | 458 kts | 184° |
| 2026-05-06 10:04 | 6.07598 | 7.02266 | 29946 ft | 457 kts | 184° |
| 2026-05-06 10:05 | 6.01229 | 7.01745 | 29950 ft | 456 kts | 184° |
| 2026-05-06 10:05 | 5.94884 | 7.01223 | 29952 ft | 456 kts | 184° |
| 2026-05-06 10:06 | 5.88528 | 7.00697 | 29951 ft | 457 kts | 184° |
| 2026-05-06 10:06 | 5.85415 | 7.00245 | 29921 ft | 457 kts | 195° |
| 2026-05-06 10:06 | 5.82435 | 6.99039 | 29937 ft | 457 kts | 210° |
| 2026-05-06 10:07 | 5.79901 | 6.97175 | 29943 ft | 457 kts | 224° |
| 2026-05-06 10:07 | 5.77866 | 6.94707 | 29944 ft | 455 kts | 239° |
| 2026-05-06 10:07 | 5.74725 | 6.89169 | 29939 ft | 456 kts | 242° |
| 2026-05-06 10:08 | 5.71662 | 6.83632 | 29937 ft | 456 kts | 241° |
| 2026-05-06 10:08 | 5.68543 | 6.78076 | 29934 ft | 457 kts | 241° |
| 2026-05-06 10:09 | 5.65418 | 6.72549 | 29931 ft | 457 kts | 241° |
| 2026-05-06 10:09 | 5.62272 | 6.66992 | 29929 ft | 457 kts | 241° |
| 2026-05-06 10:10 | 5.59128 | 6.61438 | 29930 ft | 457 kts | 241° |
| 2026-05-06 10:10 | 5.56003 | 6.55923 | 29928 ft | 457 kts | 241° |
| 2026-05-06 10:11 | 5.52851 | 6.50361 | 29925 ft | 457 kts | 241° |
| 2026-05-06 10:11 | 5.49727 | 6.44850 | 29923 ft | 457 kts | 241° |
| 2026-05-06 10:12 | 5.46567 | 6.39277 | 29924 ft | 457 kts | 241° |
| 2026-05-06 10:12 | 5.43461 | 6.33803 | 29762 ft | 448 kts | 241° |
| 2026-05-06 10:13 | 5.41924 | 6.31079 | 29326 ft | 444 kts | 241° |
| 2026-05-06 10:13 | 5.40417 | 6.28409 | 28884 ft | 440 kts | 241° |
| 2026-05-06 10:13 | 5.38927 | 6.25775 | 28456 ft | 435 kts | 241° |
| 2026-05-06 10:13 | 5.37424 | 6.23124 | 28035 ft | 431 kts | 240° |
| 2026-05-06 10:14 | 5.35970 | 6.20560 | 27636 ft | 427 kts | 240° |
| 2026-05-06 10:14 | 5.34492 | 6.17956 | 27234 ft | 422 kts | 242° |
| 2026-05-06 10:14 | 5.33393 | 6.15273 | 26864 ft | 415 kts | 261° |
| 2026-05-06 10:14 | 5.33384 | 6.12468 | 26575 ft | 404 kts | 284° |
| 2026-05-06 10:15 | 5.34479 | 6.09931 | 26327 ft | 390 kts | 309° |
| 2026-05-06 10:15 | 5.36416 | 6.08153 | 26094 ft | 375 kts | 333° |
| 2026-05-06 10:15 | 5.38822 | 6.07254 | 25855 ft | 361 kts | 353° |
| 2026-05-06 10:15 | 5.41270 | 6.07211 | 25607 ft | 350 kts | 12° |
| 2026-05-06 10:16 | 5.43563 | 6.07954 | 25364 ft | 340 kts | 30° |
| 2026-05-06 10:16 | 5.45432 | 6.09352 | 25125 ft | 331 kts | 48° |
| 2026-05-06 10:16 | 5.46737 | 6.11198 | 24893 ft | 323 kts | 60° |
| 2026-05-06 10:16 | 5.47820 | 6.13168 | 24626 ft | 318 kts | 61° |
| 2026-05-06 10:17 | 5.48874 | 6.15099 | 24363 ft | 314 kts | 61° |
| 2026-05-06 10:17 | 5.49922 | 6.16996 | 24105 ft | 309 kts | 61° |
| 2026-05-06 10:17 | 5.50949 | 6.18841 | 23849 ft | 304 kts | 61° |
| 2026-05-06 10:17 | 5.51931 | 6.20721 | 23583 ft | 299 kts | 70° |
| 2026-05-06 10:18 | 5.52368 | 6.22713 | 23364 ft | 294 kts | 86° |
| 2026-05-06 10:18 | 5.52203 | 6.24734 | 23129 ft | 290 kts | 102° |
| 2026-05-06 10:18 | 5.51474 | 6.26616 | 22848 ft | 290 kts | 118° |
| 2026-05-06 10:18 | 5.50247 | 6.28207 | 22528 ft | 291 kts | 134° |
| 2026-05-06 10:19 | 5.48608 | 6.29392 | 22211 ft | 294 kts | 150° |
| 2026-05-06 10:19 | 5.46655 | 6.30070 | 21911 ft | 296 kts | 168° |
| 2026-05-06 10:19 | 5.44581 | 6.30145 | 21610 ft | 299 kts | 186° |
| 2026-05-06 10:19 | 5.42566 | 6.29597 | 21318 ft | 301 kts | 202° |
| 2026-05-06 10:20 | 5.40803 | 6.28489 | 21025 ft | 303 kts | 220° |
| 2026-05-06 10:20 | 5.39426 | 6.26880 | 20733 ft | 303 kts | 237° |
| 2026-05-06 10:20 | 5.38374 | 6.25046 | 20453 ft | 302 kts | 240° |
| 2026-05-06 10:20 | 5.37382 | 6.23207 | 20195 ft | 299 kts | 240° |
| 2026-05-06 10:21 | 5.36388 | 6.21378 | 20132 ft | 299 kts | 240° |
| 2026-05-06 10:21 | 5.35384 | 6.19562 | 20094 ft | 299 kts | 240° |
| 2026-05-06 10:21 | 5.34364 | 6.17735 | 20090 ft | 300 kts | 240° |
| 2026-05-06 10:21 | 5.33571 | 6.15811 | 20080 ft | 300 kts | 258° |
| 2026-05-06 10:22 | 5.33417 | 6.13738 | 20077 ft | 298 kts | 277° |
| 2026-05-06 10:22 | 5.33889 | 6.11716 | 20080 ft | 297 kts | 295° |
| 2026-05-06 10:22 | 5.34919 | 6.09938 | 20100 ft | 294 kts | 312° |
| 2026-05-06 10:22 | 5.36394 | 6.08551 | 20110 ft | 290 kts | 329° |
| 2026-05-06 10:23 | 5.38180 | 6.07650 | 20115 ft | 285 kts | 346° |
| 2026-05-06 10:23 | 5.40123 | 6.07293 | 20116 ft | 281 kts | 2° |
| 2026-05-06 10:23 | 5.42065 | 6.07488 | 20117 ft | 277 kts | 18° |
| 2026-05-06 10:23 | 5.43827 | 6.08185 | 20123 ft | 273 kts | 33° |
| 2026-05-06 10:24 | 5.45349 | 6.09344 | 20117 ft | 270 kts | 49° |
| 2026-05-06 10:24 | 5.46472 | 6.10816 | 20124 ft | 268 kts | 60° |
| 2026-05-06 10:24 | 5.47404 | 6.12458 | 20130 ft | 268 kts | 62° |
| 2026-05-06 10:24 | 5.48309 | 6.14103 | 20131 ft | 269 kts | 62° |
| 2026-05-06 10:25 | 5.49213 | 6.15737 | 20124 ft | 269 kts | 62° |
| 2026-05-06 10:25 | 5.50132 | 6.17387 | 20130 ft | 269 kts | 62° |
| 2026-05-06 10:25 | 5.51049 | 6.19027 | 20132 ft | 269 kts | 62° |
| 2026-05-06 10:25 | 5.51913 | 6.20682 | 20124 ft | 268 kts | 70° |
| 2026-05-06 10:26 | 5.52345 | 6.22498 | 20137 ft | 267 kts | 86° |
| 2026-05-06 10:26 | 5.52272 | 6.24352 | 20154 ft | 267 kts | 100° |
| 2026-05-06 10:26 | 5.51716 | 6.26126 | 20162 ft | 269 kts | 115° |
| 2026-05-06 10:26 | 5.50700 | 6.27710 | 20173 ft | 272 kts | 129° |
| 2026-05-06 10:27 | 5.49297 | 6.28970 | 20171 ft | 275 kts | 144° |
| 2026-05-06 10:27 | 5.47562 | 6.29826 | 20175 ft | 279 kts | 160° |
| 2026-05-06 10:27 | 5.45624 | 6.30178 | 20179 ft | 284 kts | 176° |
| 2026-05-06 10:27 | 5.43638 | 6.29961 | 20179 ft | 289 kts | 193° |
| 2026-05-06 10:28 | 5.41788 | 6.29195 | 20169 ft | 293 kts | 210° |
| 2026-05-06 10:28 | 5.40200 | 6.27901 | 20164 ft | 297 kts | 227° |
| 2026-05-06 10:28 | 5.39011 | 6.26190 | 20174 ft | 299 kts | 239° |
| 2026-05-06 10:28 | 5.37999 | 6.24359 | 20160 ft | 300 kts | 240° |
| 2026-05-06 10:29 | 5.37005 | 6.22514 | 20155 ft | 300 kts | 240° |
| 2026-05-06 10:29 | 5.35991 | 6.20660 | 19816 ft | 306 kts | 240° |
| 2026-05-06 10:29 | 5.34950 | 6.18785 | 19359 ft | 311 kts | 239° |
| 2026-05-06 10:29 | 5.33918 | 6.16869 | 18893 ft | 317 kts | 246° |
| 2026-05-06 10:30 | 5.33405 | 6.14743 | 18470 ft | 321 kts | 267° |
| 2026-05-06 10:30 | 5.33620 | 6.12507 | 18069 ft | 321 kts | 287° |
| 2026-05-06 10:30 | 5.34523 | 6.10472 | 17667 ft | 320 kts | 306° |
| 2026-05-06 10:30 | 5.36006 | 6.08827 | 17270 ft | 318 kts | 324° |
| 2026-05-06 10:31 | 5.37897 | 6.07734 | 16870 ft | 314 kts | 343° |
| 2026-05-06 10:31 | 5.40003 | 6.07279 | 16472 ft | 309 kts | 1° |
| 2026-05-06 10:31 | 5.42126 | 6.07484 | 16067 ft | 304 kts | 19° |
| 2026-05-06 10:31 | 5.44068 | 6.08310 | 15666 ft | 299 kts | 36° |
| 2026-05-06 10:32 | 5.45637 | 6.09638 | 15262 ft | 295 kts | 52° |
| 2026-05-06 10:32 | 5.46776 | 6.11339 | 14872 ft | 293 kts | 62° |
| 2026-05-06 10:32 | 5.47760 | 6.13107 | 14473 ft | 294 kts | 62° |
| 2026-05-06 10:32 | 5.48752 | 6.14905 | 14068 ft | 294 kts | 62° |
| 2026-05-06 10:33 | 5.49752 | 6.16706 | 13670 ft | 294 kts | 62° |
| 2026-05-06 10:33 | 5.50747 | 6.18488 | 13273 ft | 294 kts | 62° |
| 2026-05-06 10:33 | 5.51731 | 6.20277 | 12862 ft | 292 kts | 65° |
| 2026-05-06 10:33 | 5.52305 | 6.22233 | 12444 ft | 293 kts | 82° |
| 2026-05-06 10:34 | 5.52270 | 6.24269 | 12031 ft | 296 kts | 97° |
| 2026-05-06 10:34 | 5.51656 | 6.26213 | 11623 ft | 300 kts | 112° |
| 2026-05-06 10:34 | 5.50448 | 6.27975 | 11210 ft | 307 kts | 128° |
| 2026-05-06 10:34 | 5.48754 | 6.29305 | 10801 ft | 315 kts | 146° |
| 2026-05-06 10:35 | 5.46693 | 6.30072 | 10393 ft | 324 kts | 164° |
| 2026-05-06 10:35 | 5.44416 | 6.30152 | 9979 ft | 332 kts | 184° |
| 2026-05-06 10:35 | 5.42171 | 6.29459 | 9571 ft | 338 kts | 205° |
| 2026-05-06 10:35 | 5.40268 | 6.28062 | 9165 ft | 341 kts | 226° |
| 2026-05-06 10:36 | 5.38902 | 6.26125 | 8780 ft | 340 kts | 241° |
| 2026-05-06 10:36 | 5.37786 | 6.24059 | 8378 ft | 339 kts | 242° |
| 2026-05-06 10:36 | 5.36683 | 6.21976 | 7977 ft | 338 kts | 242° |
| 2026-05-06 10:36 | 5.35552 | 6.19886 | 7574 ft | 337 kts | 241° |
| 2026-05-06 10:37 | 5.34422 | 6.17848 | 7175 ft | 335 kts | 241° |
| 2026-05-06 10:37 | 5.33519 | 6.15704 | 6749 ft | 333 kts | 259° |
| 2026-05-06 10:37 | 5.33432 | 6.13402 | 6351 ft | 329 kts | 279° |
| 2026-05-06 10:37 | 5.34096 | 6.11244 | 5949 ft | 325 kts | 297° |
| 2026-05-06 10:38 | 5.35384 | 6.09429 | 5543 ft | 321 kts | 315° |
| 2026-05-06 10:38 | 5.37181 | 6.08097 | 5135 ft | 318 kts | 334° |
| 2026-05-06 10:38 | 5.39243 | 6.07405 | 4734 ft | 315 kts | 351° |
| 2026-05-06 10:38 | 5.41437 | 6.07376 | 4323 ft | 313 kts | 9° |
| 2026-05-06 10:39 | 5.43532 | 6.08023 | 3915 ft | 312 kts | 27° |
| 2026-05-06 10:39 | 5.45287 | 6.09248 | 3508 ft | 311 kts | 45° |
| 2026-05-06 10:39 | 5.46606 | 6.10958 | 3107 ft | 309 kts | 60° |
| 2026-05-06 10:39 | 5.47659 | 6.12839 | 2703 ft | 308 kts | 62° |
| 2026-05-06 10:40 | 5.48668 | 6.14710 | 2300 ft | 308 kts | 62° |
| 2026-05-06 10:40 | 5.49701 | 6.16605 | 1975 ft | 304 kts | 62° |
| 2026-05-06 10:40 | 5.50708 | 6.18426 | 1911 ft | 291 kts | 61° |
| 2026-05-06 10:40 | 5.51671 | 6.20162 | 1899 ft | 276 kts | 64° |
| 2026-05-06 10:41 | 5.52286 | 6.21932 | 1893 ft | 262 kts | 81° |
| 2026-05-06 10:41 | 5.52391 | 6.23694 | 1890 ft | 247 kts | 98° |
| 2026-05-06 10:41 | 5.51743 | 6.25286 | 1886 ft | 257 kts | 131° |
| 2026-05-06 10:41 | 5.50436 | 6.26554 | 1896 ft | 261 kts | 136° |
| 2026-05-06 10:42 | 5.49395 | 6.28024 | 1905 ft | 264 kts | 117° |
| 2026-05-06 10:42 | 5.48665 | 6.29730 | 1902 ft | 264 kts | 113° |
| 2026-05-06 10:42 | 5.47996 | 6.31441 | 1900 ft | 264 kts | 112° |
| 2026-05-06 10:42 | 5.47314 | 6.33155 | 1900 ft | 264 kts | 113° |
| 2026-05-06 10:43 | 5.46619 | 6.34857 | 1901 ft | 264 kts | 113° |
| 2026-05-06 10:43 | 5.45907 | 6.36563 | 1901 ft | 264 kts | 114° |
| 2026-05-06 10:43 | 5.45184 | 6.38267 | 1900 ft | 264 kts | 114° |
| 2026-05-06 10:44 | 5.43734 | 6.41645 | 1902 ft | 264 kts | 114° |
| 2026-05-06 10:44 | 5.43008 | 6.43329 | 1901 ft | 264 kts | 114° |
| 2026-05-06 10:44 | 5.42277 | 6.45022 | 1899 ft | 264 kts | 114° |
| 2026-05-06 10:44 | 5.41548 | 6.46710 | 1900 ft | 264 kts | 114° |
| 2026-05-06 10:45 | 5.40808 | 6.48418 | 1899 ft | 264 kts | 114° |
| 2026-05-06 10:45 | 5.40080 | 6.50098 | 1900 ft | 264 kts | 114° |
| 2026-05-06 10:45 | 5.39344 | 6.51794 | 1899 ft | 264 kts | 114° |
| 2026-05-06 10:45 | 5.38617 | 6.53475 | 1901 ft | 264 kts | 114° |
| 2026-05-06 10:46 | 5.37890 | 6.55155 | 1903 ft | 264 kts | 114° |
| 2026-05-06 10:46 | 5.37152 | 6.56863 | 1902 ft | 264 kts | 114° |
| 2026-05-06 10:46 | 5.36428 | 6.58536 | 1904 ft | 264 kts | 115° |
| 2026-05-06 10:46 | 5.35688 | 6.60243 | 1905 ft | 264 kts | 114° |
| 2026-05-06 10:47 | 5.34958 | 6.61929 | 1908 ft | 264 kts | 115° |
| 2026-05-06 10:47 | 5.34228 | 6.63610 | 1909 ft | 264 kts | 115° |
| 2026-05-06 10:47 | 5.33495 | 6.65299 | 1911 ft | 264 kts | 114° |
| 2026-05-06 10:47 | 5.32761 | 6.67002 | 1915 ft | 264 kts | 114° |
| 2026-05-06 10:48 | 5.32045 | 6.68669 | 1917 ft | 264 kts | 115° |
| 2026-05-06 10:48 | 5.31312 | 6.70369 | 1918 ft | 263 kts | 115° |
| 2026-05-06 10:48 | 5.30583 | 6.72055 | 1920 ft | 263 kts | 115° |
| 2026-05-06 10:48 | 5.29855 | 6.73737 | 1922 ft | 263 kts | 115° |
| 2026-05-06 10:49 | 5.29119 | 6.75432 | 1927 ft | 263 kts | 115° |
| 2026-05-06 10:49 | 5.28389 | 6.77114 | 1926 ft | 263 kts | 115° |
| 2026-05-06 10:49 | 5.27661 | 6.78792 | 1926 ft | 263 kts | 115° |
| 2026-05-06 10:49 | 5.26928 | 6.80481 | 1926 ft | 263 kts | 115° |
| 2026-05-06 10:50 | 5.26199 | 6.82163 | 1924 ft | 263 kts | 115° |
| 2026-05-06 10:50 | 5.25476 | 6.83828 | 1924 ft | 263 kts | 115° |
| 2026-05-06 10:50 | 5.24756 | 6.85487 | 1918 ft | 253 kts | 115° |
| 2026-05-06 10:50 | 5.24076 | 6.87055 | 1917 ft | 239 kts | 114° |
| 2026-05-06 10:51 | 5.23424 | 6.88560 | 1917 ft | 226 kts | 115° |
| 2026-05-06 10:51 | 5.22821 | 6.89952 | 1912 ft | 214 kts | 115° |
| 2026-05-06 10:51 | 5.22240 | 6.91293 | 1910 ft | 201 kts | 115° |
| 2026-05-06 10:51 | 5.21695 | 6.92548 | 1917 ft | 197 kts | 115° |
| 2026-05-06 10:52 | 5.21146 | 6.93811 | 1915 ft | 198 kts | 115° |
| 2026-05-06 10:52 | 5.20590 | 6.95086 | 1916 ft | 198 kts | 115° |
| 2026-05-06 10:52 | 5.19988 | 6.96316 | 1918 ft | 197 kts | 120° |
| 2026-05-06 10:52 | 5.19332 | 6.97536 | 1915 ft | 197 kts | 120° |
| 2026-05-06 10:53 | 5.18676 | 6.98746 | 1914 ft | 197 kts | 120° |
| 2026-05-06 10:53 | 5.18018 | 6.99960 | 1915 ft | 198 kts | 120° |
| 2026-05-06 10:53 | 5.17377 | 7.01149 | 1900 ft | 188 kts | 120° |
| 2026-05-06 10:53 | 5.16756 | 7.02253 | 1890 ft | 176 kts | 129° |
| 2026-05-06 10:54 | 5.15767 | 7.02885 | 1887 ft | 168 kts | 177° |
| 2026-05-06 10:54 | 5.14670 | 7.02601 | 1912 ft | 165 kts | 217° |
| 2026-05-06 10:54 | 5.13760 | 7.01877 | 1929 ft | 170 kts | 218° |
| 2026-05-06 10:54 | 5.12811 | 7.01156 | 1927 ft | 170 kts | 214° |
| 2026-05-06 10:55 | 5.11810 | 7.00504 | 1923 ft | 170 kts | 211° |
| 2026-05-06 10:55 | 5.10782 | 6.99901 | 1794 ft | 170 kts | 208° |
| 2026-05-06 10:55 | 5.09748 | 6.99341 | 1627 ft | 171 kts | 207° |
| 2026-05-06 10:55 | 5.08686 | 6.98778 | 1401 ft | 171 kts | 207° |
| 2026-05-06 10:56 | 5.07631 | 6.98216 | 1178 ft | 171 kts | 208° |
| 2026-05-06 10:56 | 5.06580 | 6.97652 | 955 ft | 172 kts | 208° |
| 2026-05-06 10:56 | 5.05517 | 6.97083 | 732 ft | 172 kts | 208° |
| 2026-05-06 10:56 | 5.04464 | 6.96518 | 514 ft | 173 kts | 208° |
| 2026-05-06 10:57 | 5.03388 | 6.95942 | 294 ft | 173 kts | 208° |
| 2026-05-06 10:57 | 5.03365 | 6.95929 | 289 ft | 173 kts | 208° |
| 2026-05-06 11:02 | 5.02326 | 6.95371 | 153 ft | 163 kts | 208° |
| 2026-05-06 11:02 | 5.01387 | 6.94872 | 131 ft | 144 kts | 207° |
| 2026-05-06 11:03 | 5.00813 | 6.94561 | 131 ft | 46 kts | 208° |
| 2026-05-06 11:03 | 5.00549 | 6.94420 | 131 ft | 38 kts | 207° |
| 2026-05-06 11:03 | 5.00367 | 6.94360 | 132 ft | 15 kts | 152° |
| 2026-05-06 11:03 | 5.00341 | 6.94375 | 132 ft | 0 kts | 148° |